sensor_id;sensor_type;location;lat;lon;timestamp;P1;durP1;ratioP1;P2;durP2;ratioP2
6013;SDS011;3035;49.928;8.410;2023-12-20T00:01:02;4.53;;;3.00;;
6013;SDS011;3035;49.928;8.410;2023-12-20T00:03:30;5.83;;;3.70;;
6013;SDS011;3035;49.928;8.410;2023-12-20T00:05:57;3.70;;;3.10;;
6013;SDS011;3035;49.928;8.410;2023-12-20T00:08:24;3.60;;;3.30;;
6013;SDS011;3035;49.928;8.410;2023-12-20T00:10:52;3.07;;;2.77;;
6013;SDS011;3035;49.928;8.410;2023-12-20T00:13:19;3.23;;;2.93;;
6013;SDS011;3035;49.928;8.410;2023-12-20T00:15:47;3.90;;;2.43;;
6013;SDS011;3035;49.928;8.410;2023-12-20T00:18:14;3.87;;;3.07;;
6013;SDS011;3035;49.928;8.410;2023-12-20T00:20:42;3.90;;;2.47;;
6013;SDS011;3035;49.928;8.410;2023-12-20T00:23:09;3.10;;;2.80;;
6013;SDS011;3035;49.928;8.410;2023-12-20T00:25:36;2.97;;;2.77;;
6013;SDS011;3035;49.928;8.410;2023-12-20T00:28:04;3.03;;;2.53;;
6013;SDS011;3035;49.928;8.410;2023-12-20T00:30:31;6.83;;;3.23;;
6013;SDS011;3035;49.928;8.410;2023-12-20T00:32:59;3.23;;;2.93;;
6013;SDS011;3035;49.928;8.410;2023-12-20T00:35:26;2.70;;;2.50;;
6013;SDS011;3035;49.928;8.410;2023-12-20T00:37:54;3.13;;;2.40;;
6013;SDS011;3035;49.928;8.410;2023-12-20T00:40:22;2.47;;;2.27;;
6013;SDS011;3035;49.928;8.410;2023-12-20T00:42:48;2.40;;;2.13;;
6013;SDS011;3035;49.928;8.410;2023-12-20T00:45:16;2.73;;;2.53;;
6013;SDS011;3035;49.928;8.410;2023-12-20T00:47:43;3.27;;;2.80;;
6013;SDS011;3035;49.928;8.410;2023-12-20T00:50:11;2.30;;;2.10;;
6013;SDS011;3035;49.928;8.410;2023-12-20T00:52:38;2.57;;;2.37;;
6013;SDS011;3035;49.928;8.410;2023-12-20T00:55:06;2.30;;;2.10;;
6013;SDS011;3035;49.928;8.410;2023-12-20T00:57:33;2.30;;;2.10;;
6013;SDS011;3035;49.928;8.410;2023-12-20T01:00:01;3.20;;;2.50;;
6013;SDS011;3035;49.928;8.410;2023-12-20T01:02:28;4.53;;;2.27;;
6013;SDS011;3035;49.928;8.410;2023-12-20T01:04:56;3.00;;;2.43;;
6013;SDS011;3035;49.928;8.410;2023-12-20T01:07:23;3.00;;;2.33;;
6013;SDS011;3035;49.928;8.410;2023-12-20T01:09:50;2.10;;;2.00;;
6013;SDS011;3035;49.928;8.410;2023-12-20T01:12:18;2.20;;;1.80;;
6013;SDS011;3035;49.928;8.410;2023-12-20T01:14:45;2.47;;;2.27;;
6013;SDS011;3035;49.928;8.410;2023-12-20T01:17:13;2.87;;;2.40;;
6013;SDS011;3035;49.928;8.410;2023-12-20T01:19:40;5.03;;;2.77;;
6013;SDS011;3035;49.928;8.410;2023-12-20T01:22:08;5.03;;;2.67;;
6013;SDS011;3035;49.928;8.410;2023-12-20T01:24:35;2.87;;;2.47;;
6013;SDS011;3035;49.928;8.410;2023-12-20T01:27:04;2.70;;;2.40;;
6013;SDS011;3035;49.928;8.410;2023-12-20T01:29:31;2.50;;;2.30;;
6013;SDS011;3035;49.928;8.410;2023-12-20T01:32:00;3.07;;;2.53;;
6013;SDS011;3035;49.928;8.410;2023-12-20T01:34:28;1.87;;;1.67;;
6013;SDS011;3035;49.928;8.410;2023-12-20T01:36:56;2.07;;;1.90;;
6013;SDS011;3035;49.928;8.410;2023-12-20T01:39:23;2.03;;;1.87;;
6013;SDS011;3035;49.928;8.410;2023-12-20T01:41:50;2.87;;;1.97;;
6013;SDS011;3035;49.928;8.410;2023-12-20T01:44:18;1.63;;;1.53;;
6013;SDS011;3035;49.928;8.410;2023-12-20T01:46:49;2.60;;;2.00;;
6013;SDS011;3035;49.928;8.410;2023-12-20T01:49:17;2.57;;;2.37;;
6013;SDS011;3035;49.928;8.410;2023-12-20T01:51:44;2.10;;;1.80;;
6013;SDS011;3035;49.928;8.410;2023-12-20T01:54:11;2.40;;;2.00;;
6013;SDS011;3035;49.928;8.410;2023-12-20T01:56:39;3.10;;;1.73;;
6013;SDS011;3035;49.928;8.410;2023-12-20T01:59:06;3.13;;;1.57;;
6013;SDS011;3035;49.928;8.410;2023-12-20T02:01:34;3.07;;;2.40;;
6013;SDS011;3035;49.928;8.410;2023-12-20T02:04:01;4.33;;;2.00;;
6013;SDS011;3035;49.928;8.410;2023-12-20T02:06:29;1.70;;;1.60;;
6013;SDS011;3035;49.928;8.410;2023-12-20T02:08:57;1.70;;;1.60;;
6013;SDS011;3035;49.928;8.410;2023-12-20T02:11:23;2.60;;;1.90;;
6013;SDS011;3035;49.928;8.410;2023-12-20T02:13:51;5.40;;;1.80;;
6013;SDS011;3035;49.928;8.410;2023-12-20T02:16:18;1.80;;;1.70;;
6013;SDS011;3035;49.928;8.410;2023-12-20T02:18:46;1.83;;;1.73;;
6013;SDS011;3035;49.928;8.410;2023-12-20T02:21:13;1.50;;;1.40;;
6013;SDS011;3035;49.928;8.410;2023-12-20T02:23:41;2.03;;;1.83;;
6013;SDS011;3035;49.928;8.410;2023-12-20T02:26:08;2.33;;;2.13;;
6013;SDS011;3035;49.928;8.410;2023-12-20T02:28:36;3.60;;;2.57;;
6013;SDS011;3035;49.928;8.410;2023-12-20T02:31:03;4.17;;;2.73;;
6013;SDS011;3035;49.928;8.410;2023-12-20T02:33:30;5.27;;;2.40;;
6013;SDS011;3035;49.928;8.410;2023-12-20T02:35:58;3.07;;;2.30;;
6013;SDS011;3035;49.928;8.410;2023-12-20T02:38:25;2.93;;;2.07;;
6013;SDS011;3035;49.928;8.410;2023-12-20T02:40:53;4.57;;;2.77;;
6013;SDS011;3035;49.928;8.410;2023-12-20T02:43:20;3.80;;;2.53;;
6013;SDS011;3035;49.928;8.410;2023-12-20T02:45:48;3.83;;;2.23;;
6013;SDS011;3035;49.928;8.410;2023-12-20T02:48:15;7.17;;;3.17;;
6013;SDS011;3035;49.928;8.410;2023-12-20T02:50:42;6.53;;;3.50;;
6013;SDS011;3035;49.928;8.410;2023-12-20T02:53:10;9.43;;;4.83;;
6013;SDS011;3035;49.928;8.410;2023-12-20T02:55:37;11.27;;;4.30;;
6013;SDS011;3035;49.928;8.410;2023-12-20T02:58:05;5.70;;;3.10;;
6013;SDS011;3035;49.928;8.410;2023-12-20T03:00:32;5.63;;;2.43;;
6013;SDS011;3035;49.928;8.410;2023-12-20T03:03:00;3.10;;;1.87;;
6013;SDS011;3035;49.928;8.410;2023-12-20T03:05:27;1.80;;;1.70;;
6013;SDS011;3035;49.928;8.410;2023-12-20T03:07:54;1.50;;;1.40;;
6013;SDS011;3035;49.928;8.410;2023-12-20T03:10:22;2.00;;;1.83;;
6013;SDS011;3035;49.928;8.410;2023-12-20T03:12:49;1.90;;;1.80;;
6013;SDS011;3035;49.928;8.410;2023-12-20T03:15:17;1.60;;;1.50;;
6013;SDS011;3035;49.928;8.410;2023-12-20T03:17:44;2.30;;;2.10;;
6013;SDS011;3035;49.928;8.410;2023-12-20T03:20:12;1.60;;;1.50;;
6013;SDS011;3035;49.928;8.410;2023-12-20T03:22:39;1.40;;;1.30;;
6013;SDS011;3035;49.928;8.410;2023-12-20T03:25:07;1.80;;;1.70;;
6013;SDS011;3035;49.928;8.410;2023-12-20T03:27:36;1.30;;;1.20;;
6013;SDS011;3035;49.928;8.410;2023-12-20T03:30:02;1.63;;;1.53;;
6013;SDS011;3035;49.928;8.410;2023-12-20T03:32:29;1.77;;;1.50;;
6013;SDS011;3035;49.928;8.410;2023-12-20T03:34:57;2.60;;;1.40;;
6013;SDS011;3035;49.928;8.410;2023-12-20T03:37:24;1.23;;;1.13;;
6013;SDS011;3035;49.928;8.410;2023-12-20T03:39:51;1.90;;;1.77;;
6013;SDS011;3035;49.928;8.410;2023-12-20T03:42:19;1.23;;;1.23;;
6013;SDS011;3035;49.928;8.410;2023-12-20T03:44:46;1.37;;;1.27;;
6013;SDS011;3035;49.928;8.410;2023-12-20T03:47:14;1.07;;;0.90;;
6013;SDS011;3035;49.928;8.410;2023-12-20T03:49:41;1.00;;;0.90;;
6013;SDS011;3035;49.928;8.410;2023-12-20T03:52:09;1.27;;;1.17;;
6013;SDS011;3035;49.928;8.410;2023-12-20T03:54:36;1.00;;;1.00;;
6013;SDS011;3035;49.928;8.410;2023-12-20T03:57:04;1.40;;;1.30;;
6013;SDS011;3035;49.928;8.410;2023-12-20T03:59:34;1.27;;;1.13;;
6013;SDS011;3035;49.928;8.410;2023-12-20T04:02:01;1.03;;;1.03;;
6013;SDS011;3035;49.928;8.410;2023-12-20T04:04:29;1.10;;;1.07;;
6013;SDS011;3035;49.928;8.410;2023-12-20T04:06:56;1.10;;;1.10;;
6013;SDS011;3035;49.928;8.410;2023-12-20T04:09:24;1.53;;;1.43;;
6013;SDS011;3035;49.928;8.410;2023-12-20T04:11:51;1.30;;;1.20;;
6013;SDS011;3035;49.928;8.410;2023-12-20T04:14:18;1.97;;;1.20;;
6013;SDS011;3035;49.928;8.410;2023-12-20T04:16:46;1.40;;;1.30;;
6013;SDS011;3035;49.928;8.410;2023-12-20T04:19:13;1.47;;;1.37;;
6013;SDS011;3035;49.928;8.410;2023-12-20T04:21:41;1.20;;;1.10;;
6013;SDS011;3035;49.928;8.410;2023-12-20T04:24:08;1.30;;;1.20;;
6013;SDS011;3035;49.928;8.410;2023-12-20T04:26:36;1.00;;;0.90;;
6013;SDS011;3035;49.928;8.410;2023-12-20T04:29:04;1.43;;;1.33;;
6013;SDS011;3035;49.928;8.410;2023-12-20T04:31:31;1.30;;;1.20;;
6013;SDS011;3035;49.928;8.410;2023-12-20T04:33:59;1.50;;;1.40;;
6013;SDS011;3035;49.928;8.410;2023-12-20T04:36:26;4.60;;;1.30;;
6013;SDS011;3035;49.928;8.410;2023-12-20T04:38:54;1.13;;;1.10;;
6013;SDS011;3035;49.928;8.410;2023-12-20T04:41:21;1.30;;;1.20;;
6013;SDS011;3035;49.928;8.410;2023-12-20T04:43:48;1.30;;;1.13;;
6013;SDS011;3035;49.928;8.410;2023-12-20T04:46:16;1.40;;;1.30;;
6013;SDS011;3035;49.928;8.410;2023-12-20T04:48:43;1.30;;;1.20;;
6013;SDS011;3035;49.928;8.410;2023-12-20T04:51:11;1.50;;;1.40;;
6013;SDS011;3035;49.928;8.410;2023-12-20T04:53:38;1.97;;;1.30;;
6013;SDS011;3035;49.928;8.410;2023-12-20T04:56:06;1.57;;;1.40;;
6013;SDS011;3035;49.928;8.410;2023-12-20T04:58:33;1.47;;;1.20;;
6013;SDS011;3035;49.928;8.410;2023-12-20T05:01:01;1.27;;;1.20;;
6013;SDS011;3035;49.928;8.410;2023-12-20T05:03:28;1.50;;;1.40;;
6013;SDS011;3035;49.928;8.410;2023-12-20T05:05:55;1.73;;;1.43;;
6013;SDS011;3035;49.928;8.410;2023-12-20T05:08:23;1.40;;;1.30;;
6013;SDS011;3035;49.928;8.410;2023-12-20T05:10:52;1.57;;;1.47;;
6013;SDS011;3035;49.928;8.410;2023-12-20T05:13:18;1.57;;;1.47;;
6013;SDS011;3035;49.928;8.410;2023-12-20T05:15:46;6.90;;;1.70;;
6013;SDS011;3035;49.928;8.410;2023-12-20T05:18:13;2.10;;;1.70;;
6013;SDS011;3035;49.928;8.410;2023-12-20T05:20:42;3.00;;;1.50;;
6013;SDS011;3035;49.928;8.410;2023-12-20T05:23:09;2.37;;;1.40;;
6013;SDS011;3035;49.928;8.410;2023-12-20T05:25:37;6.13;;;1.60;;
6013;SDS011;3035;49.928;8.410;2023-12-20T05:28:05;2.90;;;1.40;;
6013;SDS011;3035;49.928;8.410;2023-12-20T05:30:32;1.77;;;1.30;;
6013;SDS011;3035;49.928;8.410;2023-12-20T05:33:00;3.73;;;1.33;;
6013;SDS011;3035;49.928;8.410;2023-12-20T05:35:27;5.07;;;1.47;;
6013;SDS011;3035;49.928;8.410;2023-12-20T05:37:55;3.70;;;1.40;;
6013;SDS011;3035;49.928;8.410;2023-12-20T05:40:22;1.93;;;1.13;;
6013;SDS011;3035;49.928;8.410;2023-12-20T05:42:49;3.50;;;1.20;;
6013;SDS011;3035;49.928;8.410;2023-12-20T05:45:17;6.13;;;1.90;;
6013;SDS011;3035;49.928;8.410;2023-12-20T05:47:44;5.93;;;1.50;;
6013;SDS011;3035;49.928;8.410;2023-12-20T05:50:12;11.73;;;1.47;;
6013;SDS011;3035;49.928;8.410;2023-12-20T05:52:39;2.13;;;1.10;;
6013;SDS011;3035;49.928;8.410;2023-12-20T05:55:07;6.80;;;1.60;;
6013;SDS011;3035;49.928;8.410;2023-12-20T05:57:34;2.10;;;1.20;;
6013;SDS011;3035;49.928;8.410;2023-12-20T06:00:02;6.33;;;1.57;;
6013;SDS011;3035;49.928;8.410;2023-12-20T06:02:29;2.53;;;1.20;;
6013;SDS011;3035;49.928;8.410;2023-12-20T06:04:56;4.00;;;1.57;;
6013;SDS011;3035;49.928;8.410;2023-12-20T06:07:24;3.83;;;1.10;;
6013;SDS011;3035;49.928;8.410;2023-12-20T06:09:51;5.13;;;1.40;;
6013;SDS011;3035;49.928;8.410;2023-12-20T06:12:19;3.00;;;1.37;;
6013;SDS011;3035;49.928;8.410;2023-12-20T06:14:46;13.57;;;1.60;;
6013;SDS011;3035;49.928;8.410;2023-12-20T06:17:14;1.93;;;1.00;;
6013;SDS011;3035;49.928;8.410;2023-12-20T06:19:41;3.77;;;1.63;;
6013;SDS011;3035;49.928;8.410;2023-12-20T06:22:08;4.20;;;1.50;;
6013;SDS011;3035;49.928;8.410;2023-12-20T06:24:36;2.07;;;1.37;;
6013;SDS011;3035;49.928;8.410;2023-12-20T06:27:03;2.93;;;1.00;;
6013;SDS011;3035;49.928;8.410;2023-12-20T06:29:31;6.93;;;1.57;;
6013;SDS011;3035;49.928;8.410;2023-12-20T06:31:58;4.43;;;1.27;;
6013;SDS011;3035;49.928;8.410;2023-12-20T06:34:26;1.70;;;1.60;;
6013;SDS011;3035;49.928;8.410;2023-12-20T06:36:53;3.07;;;1.27;;
6013;SDS011;3035;49.928;8.410;2023-12-20T06:39:20;3.30;;;1.30;;
6013;SDS011;3035;49.928;8.410;2023-12-20T06:41:48;5.00;;;1.30;;
6013;SDS011;3035;49.928;8.410;2023-12-20T06:44:15;1.20;;;1.10;;
6013;SDS011;3035;49.928;8.410;2023-12-20T06:46:43;2.10;;;1.20;;
6013;SDS011;3035;49.928;8.410;2023-12-20T06:49:10;4.73;;;1.30;;
6013;SDS011;3035;49.928;8.410;2023-12-20T06:51:38;4.30;;;1.57;;
6013;SDS011;3035;49.928;8.410;2023-12-20T06:54:05;3.97;;;1.27;;
6013;SDS011;3035;49.928;8.410;2023-12-20T06:56:33;2.70;;;1.50;;
6013;SDS011;3035;49.928;8.410;2023-12-20T06:59:00;2.23;;;1.33;;
6013;SDS011;3035;49.928;8.410;2023-12-20T07:01:27;2.07;;;1.30;;
6013;SDS011;3035;49.928;8.410;2023-12-20T07:03:55;3.93;;;1.60;;
6013;SDS011;3035;49.928;8.410;2023-12-20T07:06:22;8.43;;;2.00;;
6013;SDS011;3035;49.928;8.410;2023-12-20T07:08:50;8.33;;;1.70;;
6013;SDS011;3035;49.928;8.410;2023-12-20T07:11:17;13.43;;;2.30;;
6013;SDS011;3035;49.928;8.410;2023-12-20T07:13:45;3.33;;;1.37;;
6013;SDS011;3035;49.928;8.410;2023-12-20T07:16:12;2.80;;;1.70;;
6013;SDS011;3035;49.928;8.410;2023-12-20T07:18:39;5.80;;;1.67;;
6013;SDS011;3035;49.928;8.410;2023-12-20T07:21:07;5.83;;;1.80;;
6013;SDS011;3035;49.928;8.410;2023-12-20T07:23:34;7.17;;;1.63;;
6013;SDS011;3035;49.928;8.410;2023-12-20T07:26:02;2.87;;;1.20;;
6013;SDS011;3035;49.928;8.410;2023-12-20T07:28:29;3.53;;;2.50;;
6013;SDS011;3035;49.928;8.410;2023-12-20T07:30:57;1.77;;;1.13;;
6013;SDS011;3035;49.928;8.410;2023-12-20T07:33:24;7.40;;;1.33;;
6013;SDS011;3035;49.928;8.410;2023-12-20T07:35:51;5.20;;;1.80;;
6013;SDS011;3035;49.928;8.410;2023-12-20T07:38:19;12.07;;;1.77;;
6013;SDS011;3035;49.928;8.410;2023-12-20T07:40:46;4.50;;;1.63;;
6013;SDS011;3035;49.928;8.410;2023-12-20T07:43:14;2.60;;;1.33;;
6013;SDS011;3035;49.928;8.410;2023-12-20T07:45:41;3.40;;;1.93;;
6013;SDS011;3035;49.928;8.410;2023-12-20T07:48:09;4.30;;;1.40;;
6013;SDS011;3035;49.928;8.410;2023-12-20T07:50:37;4.00;;;2.03;;
6013;SDS011;3035;49.928;8.410;2023-12-20T07:53:04;7.73;;;2.60;;
6013;SDS011;3035;49.928;8.410;2023-12-20T07:55:32;6.10;;;1.70;;
6013;SDS011;3035;49.928;8.410;2023-12-20T07:57:59;5.73;;;1.40;;
6013;SDS011;3035;49.928;8.410;2023-12-20T08:00:27;1.10;;;1.00;;
6013;SDS011;3035;49.928;8.410;2023-12-20T08:02:54;9.23;;;2.50;;
6013;SDS011;3035;49.928;8.410;2023-12-20T08:05:21;5.23;;;2.47;;
6013;SDS011;3035;49.928;8.410;2023-12-20T08:07:49;5.23;;;2.00;;
6013;SDS011;3035;49.928;8.410;2023-12-20T08:10:16;3.17;;;1.60;;
6013;SDS011;3035;49.928;8.410;2023-12-20T08:12:44;2.80;;;1.30;;
6013;SDS011;3035;49.928;8.410;2023-12-20T08:15:11;12.27;;;1.37;;
6013;SDS011;3035;49.928;8.410;2023-12-20T08:17:39;2.27;;;1.40;;
6013;SDS011;3035;49.928;8.410;2023-12-20T08:20:06;5.67;;;2.07;;
6013;SDS011;3035;49.928;8.410;2023-12-20T08:22:34;1.97;;;1.30;;
6013;SDS011;3035;49.928;8.410;2023-12-20T08:25:01;3.30;;;1.80;;
6013;SDS011;3035;49.928;8.410;2023-12-20T08:27:29;10.60;;;2.10;;
6013;SDS011;3035;49.928;8.410;2023-12-20T08:29:56;5.30;;;1.83;;
6013;SDS011;3035;49.928;8.410;2023-12-20T08:32:25;11.10;;;1.90;;
6013;SDS011;3035;49.928;8.410;2023-12-20T08:34:52;7.50;;;2.00;;
6013;SDS011;3035;49.928;8.410;2023-12-20T08:37:19;5.67;;;1.80;;
6013;SDS011;3035;49.928;8.410;2023-12-20T08:39:47;14.50;;;1.70;;
6013;SDS011;3035;49.928;8.410;2023-12-20T08:42:14;8.30;;;1.70;;
6013;SDS011;3035;49.928;8.410;2023-12-20T08:44:42;3.57;;;1.60;;
6013;SDS011;3035;49.928;8.410;2023-12-20T08:47:09;5.13;;;1.67;;
6013;SDS011;3035;49.928;8.410;2023-12-20T08:49:37;4.50;;;1.30;;
6013;SDS011;3035;49.928;8.410;2023-12-20T08:52:04;9.70;;;1.70;;
6013;SDS011;3035;49.928;8.410;2023-12-20T08:54:32;5.73;;;1.80;;
6013;SDS011;3035;49.928;8.410;2023-12-20T08:56:59;6.87;;;1.40;;
6013;SDS011;3035;49.928;8.410;2023-12-20T08:59:26;4.10;;;1.90;;
6013;SDS011;3035;49.928;8.410;2023-12-20T09:01:54;3.10;;;1.53;;
6013;SDS011;3035;49.928;8.410;2023-12-20T09:04:21;5.57;;;1.23;;
6013;SDS011;3035;49.928;8.410;2023-12-20T09:06:49;7.13;;;1.33;;
6013;SDS011;3035;49.928;8.410;2023-12-20T09:09:16;1.70;;;1.60;;
6013;SDS011;3035;49.928;8.410;2023-12-20T09:11:44;3.30;;;1.50;;
6013;SDS011;3035;49.928;8.410;2023-12-20T09:14:11;2.30;;;1.17;;
6013;SDS011;3035;49.928;8.410;2023-12-20T09:16:38;5.00;;;1.83;;
6013;SDS011;3035;49.928;8.410;2023-12-20T09:19:06;3.70;;;1.43;;
6013;SDS011;3035;49.928;8.410;2023-12-20T09:21:33;8.67;;;1.90;;
6013;SDS011;3035;49.928;8.410;2023-12-20T09:24:01;13.23;;;2.57;;
6013;SDS011;3035;49.928;8.410;2023-12-20T09:26:28;6.73;;;1.70;;
6013;SDS011;3035;49.928;8.410;2023-12-20T09:28:56;6.53;;;1.70;;
6013;SDS011;3035;49.928;8.410;2023-12-20T09:31:23;6.53;;;1.60;;
6013;SDS011;3035;49.928;8.410;2023-12-20T09:33:51;8.20;;;1.77;;
6013;SDS011;3035;49.928;8.410;2023-12-20T09:36:18;5.67;;;2.13;;
6013;SDS011;3035;49.928;8.410;2023-12-20T09:38:45;3.33;;;1.43;;
6013;SDS011;3035;49.928;8.410;2023-12-20T09:41:13;5.83;;;1.83;;
6013;SDS011;3035;49.928;8.410;2023-12-20T09:43:41;11.30;;;2.20;;
6013;SDS011;3035;49.928;8.410;2023-12-20T09:46:08;6.30;;;1.43;;
6013;SDS011;3035;49.928;8.410;2023-12-20T09:48:35;9.23;;;1.83;;
6013;SDS011;3035;49.928;8.410;2023-12-20T09:51:03;6.50;;;1.90;;
6013;SDS011;3035;49.928;8.410;2023-12-20T09:53:30;5.10;;;1.70;;
6013;SDS011;3035;49.928;8.410;2023-12-20T09:55:58;9.20;;;2.03;;
6013;SDS011;3035;49.928;8.410;2023-12-20T09:58:25;3.73;;;1.33;;
6013;SDS011;3035;49.928;8.410;2023-12-20T10:00:53;12.47;;;2.30;;
6013;SDS011;3035;49.928;8.410;2023-12-20T10:03:23;4.63;;;1.70;;
6013;SDS011;3035;49.928;8.410;2023-12-20T10:05:48;4.30;;;1.63;;
6013;SDS011;3035;49.928;8.410;2023-12-20T10:08:16;8.23;;;1.80;;
6013;SDS011;3035;49.928;8.410;2023-12-20T10:10:43;9.43;;;2.27;;
6013;SDS011;3035;49.928;8.410;2023-12-20T10:13:11;5.60;;;1.40;;
6013;SDS011;3035;49.928;8.410;2023-12-20T10:15:38;4.27;;;1.80;;
6013;SDS011;3035;49.928;8.410;2023-12-20T10:18:05;9.20;;;2.80;;
6013;SDS011;3035;49.928;8.410;2023-12-20T10:20:33;11.27;;;2.27;;
6013;SDS011;3035;49.928;8.410;2023-12-20T10:23:00;7.67;;;1.93;;
6013;SDS011;3035;49.928;8.410;2023-12-20T10:25:28;5.77;;;2.10;;
6013;SDS011;3035;49.928;8.410;2023-12-20T10:30:37;9.27;;;1.70;;
6013;SDS011;3035;49.928;8.410;2023-12-20T10:33:07;10.30;;;1.70;;
6013;SDS011;3035;49.928;8.410;2023-12-20T10:35:35;8.43;;;2.03;;
6013;SDS011;3035;49.928;8.410;2023-12-20T10:38:03;7.50;;;2.30;;
6013;SDS011;3035;49.928;8.410;2023-12-20T10:40:31;9.20;;;1.50;;
6013;SDS011;3035;49.928;8.410;2023-12-20T10:42:58;7.50;;;1.33;;
6013;SDS011;3035;49.928;8.410;2023-12-20T10:45:25;3.10;;;1.40;;
6013;SDS011;3035;49.928;8.410;2023-12-20T10:47:52;7.50;;;1.40;;
6013;SDS011;3035;49.928;8.410;2023-12-20T10:50:20;8.90;;;1.80;;
6013;SDS011;3035;49.928;8.410;2023-12-20T10:52:47;9.87;;;1.60;;
6013;SDS011;3035;49.928;8.410;2023-12-20T10:55:15;13.33;;;1.60;;
6013;SDS011;3035;49.928;8.410;2023-12-20T10:57:42;5.40;;;1.50;;
6013;SDS011;3035;49.928;8.410;2023-12-20T11:00:10;5.47;;;2.00;;
6013;SDS011;3035;49.928;8.410;2023-12-20T11:02:39;5.53;;;1.80;;
6013;SDS011;3035;49.928;8.410;2023-12-20T11:05:10;7.20;;;2.03;;
6013;SDS011;3035;49.928;8.410;2023-12-20T11:07:39;7.90;;;1.87;;
6013;SDS011;3035;49.928;8.410;2023-12-20T11:12:51;7.80;;;2.07;;
6013;SDS011;3035;49.928;8.410;2023-12-20T11:15:19;9.23;;;1.50;;
6013;SDS011;3035;49.928;8.410;2023-12-20T11:17:53;5.90;;;1.90;;
6013;SDS011;3035;49.928;8.410;2023-12-20T11:20:14;8.23;;;1.90;;
6013;SDS011;3035;49.928;8.410;2023-12-20T11:22:51;11.57;;;1.67;;
6013;SDS011;3035;49.928;8.410;2023-12-20T11:25:10;8.70;;;1.67;;
6013;SDS011;3035;49.928;8.410;2023-12-20T11:27:37;4.10;;;1.20;;
6013;SDS011;3035;49.928;8.410;2023-12-20T11:30:05;4.93;;;1.43;;
6013;SDS011;3035;49.928;8.410;2023-12-20T11:32:34;6.80;;;1.60;;
6013;SDS011;3035;49.928;8.410;2023-12-20T11:35:16;6.20;;;1.80;;
6013;SDS011;3035;49.928;8.410;2023-12-20T11:37:30;12.80;;;2.30;;
6013;SDS011;3035;49.928;8.410;2023-12-20T11:40:04;5.17;;;1.90;;
6013;SDS011;3035;49.928;8.410;2023-12-20T11:42:28;5.07;;;1.37;;
6013;SDS011;3035;49.928;8.410;2023-12-20T11:44:55;5.70;;;1.70;;
6013;SDS011;3035;49.928;8.410;2023-12-20T11:47:22;6.30;;;1.83;;
6013;SDS011;3035;49.928;8.410;2023-12-20T11:49:50;9.57;;;1.80;;
6013;SDS011;3035;49.928;8.410;2023-12-20T11:52:17;4.43;;;1.57;;
6013;SDS011;3035;49.928;8.410;2023-12-20T11:54:45;6.63;;;1.57;;
6013;SDS011;3035;49.928;8.410;2023-12-20T11:57:12;7.90;;;1.80;;
6013;SDS011;3035;49.928;8.410;2023-12-20T11:59:40;6.23;;;1.97;;
6013;SDS011;3035;49.928;8.410;2023-12-20T12:02:08;4.67;;;1.60;;
6013;SDS011;3035;49.928;8.410;2023-12-20T12:04:36;9.17;;;1.67;;
6013;SDS011;3035;49.928;8.410;2023-12-20T12:07:04;4.33;;;1.40;;
6013;SDS011;3035;49.928;8.410;2023-12-20T12:09:32;9.30;;;2.53;;
6013;SDS011;3035;49.928;8.410;2023-12-20T12:12:01;5.83;;;1.50;;
6013;SDS011;3035;49.928;8.410;2023-12-20T12:14:27;5.67;;;2.03;;
6013;SDS011;3035;49.928;8.410;2023-12-20T12:16:55;7.03;;;1.63;;
6013;SDS011;3035;49.928;8.410;2023-12-20T12:19:23;7.17;;;1.60;;
6013;SDS011;3035;49.928;8.410;2023-12-20T12:21:51;4.23;;;1.57;;
6013;SDS011;3035;49.928;8.410;2023-12-20T12:24:20;5.90;;;1.60;;
6013;SDS011;3035;49.928;8.410;2023-12-20T12:26:50;14.23;;;1.40;;
6013;SDS011;3035;49.928;8.410;2023-12-20T12:29:17;7.30;;;1.60;;
6013;SDS011;3035;49.928;8.410;2023-12-20T12:31:44;4.87;;;1.30;;
6013;SDS011;3035;49.928;8.410;2023-12-20T12:34:12;6.03;;;1.67;;
6013;SDS011;3035;49.928;8.410;2023-12-20T12:36:40;6.97;;;2.20;;
6013;SDS011;3035;49.928;8.410;2023-12-20T12:39:07;7.83;;;2.27;;
6013;SDS011;3035;49.928;8.410;2023-12-20T12:41:36;7.23;;;1.93;;
6013;SDS011;3035;49.928;8.410;2023-12-20T12:44:03;9.03;;;2.27;;
6013;SDS011;3035;49.928;8.410;2023-12-20T12:46:31;4.90;;;1.97;;
6013;SDS011;3035;49.928;8.410;2023-12-20T12:48:58;5.53;;;1.50;;
6013;SDS011;3035;49.928;8.410;2023-12-20T12:51:25;7.33;;;2.00;;
6013;SDS011;3035;49.928;8.410;2023-12-20T12:56:36;9.80;;;1.67;;
6013;SDS011;3035;49.928;8.410;2023-12-20T12:59:03;4.33;;;1.90;;
6013;SDS011;3035;49.928;8.410;2023-12-20T13:01:31;6.30;;;1.73;;
6013;SDS011;3035;49.928;8.410;2023-12-20T13:03:58;12.93;;;1.50;;
6013;SDS011;3035;49.928;8.410;2023-12-20T13:06:26;3.70;;;1.80;;
6013;SDS011;3035;49.928;8.410;2023-12-20T13:08:53;6.70;;;2.10;;
6013;SDS011;3035;49.928;8.410;2023-12-20T13:11:20;6.73;;;1.83;;
6013;SDS011;3035;49.928;8.410;2023-12-20T13:13:48;8.53;;;1.87;;
6013;SDS011;3035;49.928;8.410;2023-12-20T13:16:15;7.13;;;2.23;;
6013;SDS011;3035;49.928;8.410;2023-12-20T13:18:43;4.70;;;1.70;;
6013;SDS011;3035;49.928;8.410;2023-12-20T13:21:10;3.63;;;1.83;;
6013;SDS011;3035;49.928;8.410;2023-12-20T13:23:38;4.43;;;1.53;;
6013;SDS011;3035;49.928;8.410;2023-12-20T13:26:05;3.30;;;1.57;;
6013;SDS011;3035;49.928;8.410;2023-12-20T13:28:33;9.10;;;2.40;;
6013;SDS011;3035;49.928;8.410;2023-12-20T13:31:00;11.90;;;2.20;;
6013;SDS011;3035;49.928;8.410;2023-12-20T13:33:28;5.23;;;1.70;;
6013;SDS011;3035;49.928;8.410;2023-12-20T13:35:55;9.27;;;1.63;;
6013;SDS011;3035;49.928;8.410;2023-12-20T13:38:23;7.43;;;1.63;;
6013;SDS011;3035;49.928;8.410;2023-12-20T13:40:50;6.37;;;1.67;;
6013;SDS011;3035;49.928;8.410;2023-12-20T13:43:18;4.07;;;1.27;;
6013;SDS011;3035;49.928;8.410;2023-12-20T13:45:45;2.83;;;1.60;;
6013;SDS011;3035;49.928;8.410;2023-12-20T13:48:13;5.33;;;1.30;;
6013;SDS011;3035;49.928;8.410;2023-12-20T13:50:41;5.53;;;1.70;;
6013;SDS011;3035;49.928;8.410;2023-12-20T13:53:10;8.30;;;1.90;;
6013;SDS011;3035;49.928;8.410;2023-12-20T13:55:38;6.10;;;1.60;;
6013;SDS011;3035;49.928;8.410;2023-12-20T13:58:06;3.23;;;1.40;;
6013;SDS011;3035;49.928;8.410;2023-12-20T14:00:34;7.60;;;1.57;;
6013;SDS011;3035;49.928;8.410;2023-12-20T14:03:03;4.73;;;1.40;;
6013;SDS011;3035;49.928;8.410;2023-12-20T14:05:31;8.40;;;1.60;;
6013;SDS011;3035;49.928;8.410;2023-12-20T14:07:58;6.63;;;1.50;;
6013;SDS011;3035;49.928;8.410;2023-12-20T14:10:26;7.10;;;1.63;;
6013;SDS011;3035;49.928;8.410;2023-12-20T14:12:53;2.77;;;1.47;;
6013;SDS011;3035;49.928;8.410;2023-12-20T14:15:20;3.13;;;1.73;;
6013;SDS011;3035;49.928;8.410;2023-12-20T14:17:48;5.10;;;2.00;;
6013;SDS011;3035;49.928;8.410;2023-12-20T14:20:15;9.13;;;1.90;;
6013;SDS011;3035;49.928;8.410;2023-12-20T14:22:43;10.17;;;1.60;;
6013;SDS011;3035;49.928;8.410;2023-12-20T14:25:11;4.93;;;1.70;;
6013;SDS011;3035;49.928;8.410;2023-12-20T14:27:40;3.10;;;1.17;;
6013;SDS011;3035;49.928;8.410;2023-12-20T14:30:07;11.10;;;1.90;;
6013;SDS011;3035;49.928;8.410;2023-12-20T14:32:35;5.33;;;1.73;;
6013;SDS011;3035;49.928;8.410;2023-12-20T14:35:04;3.93;;;1.50;;
6013;SDS011;3035;49.928;8.410;2023-12-20T14:37:32;4.50;;;1.70;;
6013;SDS011;3035;49.928;8.410;2023-12-20T14:40:00;2.20;;;1.67;;
6013;SDS011;3035;49.928;8.410;2023-12-20T14:42:27;11.37;;;1.67;;
6013;SDS011;3035;49.928;8.410;2023-12-20T14:44:54;7.93;;;1.97;;
6013;SDS011;3035;49.928;8.410;2023-12-20T14:47:22;6.73;;;1.30;;
6013;SDS011;3035;49.928;8.410;2023-12-20T14:49:49;8.37;;;1.97;;
6013;SDS011;3035;49.928;8.410;2023-12-20T14:52:17;5.23;;;2.57;;
6013;SDS011;3035;49.928;8.410;2023-12-20T14:54:44;2.77;;;1.17;;
6013;SDS011;3035;49.928;8.410;2023-12-20T14:57:12;11.70;;;2.13;;
6013;SDS011;3035;49.928;8.410;2023-12-20T14:59:39;5.30;;;1.57;;
6013;SDS011;3035;49.928;8.410;2023-12-20T15:02:07;8.30;;;1.60;;
6013;SDS011;3035;49.928;8.410;2023-12-20T15:04:34;9.00;;;1.70;;
6013;SDS011;3035;49.928;8.410;2023-12-20T15:07:02;5.57;;;1.30;;
6013;SDS011;3035;49.928;8.410;2023-12-20T15:09:29;3.57;;;1.80;;
6013;SDS011;3035;49.928;8.410;2023-12-20T15:11:57;5.40;;;2.00;;
6013;SDS011;3035;49.928;8.410;2023-12-20T15:14:24;3.53;;;1.53;;
6013;SDS011;3035;49.928;8.410;2023-12-20T15:16:51;2.23;;;1.20;;
6013;SDS011;3035;49.928;8.410;2023-12-20T15:19:19;8.37;;;1.87;;
6013;SDS011;3035;49.928;8.410;2023-12-20T15:21:46;3.20;;;1.30;;
6013;SDS011;3035;49.928;8.410;2023-12-20T15:24:14;8.70;;;2.20;;